sensor_id;sensor_type;location;lat;lon;timestamp;P1;durP1;ratioP1;P2;durP2;ratioP2
16480;SDS011;44634;54.110;12.138;2022-11-14T00:00:30;12.00;;;8.77;;
16480;SDS011;44634;54.110;12.138;2022-11-14T00:02:58;12.97;;;8.73;;
16480;SDS011;44634;54.110;12.138;2022-11-14T00:05:27;12.63;;;8.93;;
16480;SDS011;44634;54.110;12.138;2022-11-14T00:07:55;12.33;;;8.70;;
16480;SDS011;44634;54.110;12.138;2022-11-14T00:10:23;10.50;;;8.57;;
16480;SDS011;44634;54.110;12.138;2022-11-14T00:12:51;13.37;;;8.23;;
16480;SDS011;44634;54.110;12.138;2022-11-14T00:15:21;12.10;;;8.53;;
16480;SDS011;44634;54.110;12.138;2022-11-14T00:17:48;11.37;;;8.27;;
16480;SDS011;44634;54.110;12.138;2022-11-14T00:20:16;10.97;;;8.23;;
16480;SDS011;44634;54.110;12.138;2022-11-14T00:22:44;10.90;;;8.17;;
16480;SDS011;44634;54.110;12.138;2022-11-14T00:25:12;11.10;;;8.23;;
16480;SDS011;44634;54.110;12.138;2022-11-14T00:27:39;9.87;;;8.20;;
16480;SDS011;44634;54.110;12.138;2022-11-14T00:30:07;10.27;;;7.93;;
16480;SDS011;44634;54.110;12.138;2022-11-14T00:32:37;9.23;;;7.77;;
16480;SDS011;44634;54.110;12.138;2022-11-14T00:35:05;11.70;;;8.67;;
16480;SDS011;44634;54.110;12.138;2022-11-14T00:37:34;11.43;;;8.40;;
16480;SDS011;44634;54.110;12.138;2022-11-14T00:40:02;13.33;;;9.00;;
16480;SDS011;44634;54.110;12.138;2022-11-14T00:42:30;12.43;;;8.37;;
16480;SDS011;44634;54.110;12.138;2022-11-14T00:44:59;10.73;;;8.17;;
16480;SDS011;44634;54.110;12.138;2022-11-14T00:47:27;9.63;;;7.57;;
16480;SDS011;44634;54.110;12.138;2022-11-14T00:49:56;10.30;;;8.10;;
16480;SDS011;44634;54.110;12.138;2022-11-14T00:52:24;10.60;;;8.40;;
16480;SDS011;44634;54.110;12.138;2022-11-14T00:54:51;9.70;;;7.63;;
16480;SDS011;44634;54.110;12.138;2022-11-14T00:57:19;10.57;;;7.90;;
16480;SDS011;44634;54.110;12.138;2022-11-14T00:59:47;8.70;;;7.33;;
16480;SDS011;44634;54.110;12.138;2022-11-14T01:02:15;8.73;;;7.83;;
16480;SDS011;44634;54.110;12.138;2022-11-14T01:04:42;10.30;;;8.40;;
16480;SDS011;44634;54.110;12.138;2022-11-14T01:07:11;12.47;;;8.47;;
16480;SDS011;44634;54.110;12.138;2022-11-14T01:09:39;9.00;;;7.57;;
16480;SDS011;44634;54.110;12.138;2022-11-14T01:12:07;10.30;;;8.30;;
16480;SDS011;44634;54.110;12.138;2022-11-14T01:14:35;10.87;;;8.37;;
16480;SDS011;44634;54.110;12.138;2022-11-14T01:17:02;12.33;;;9.30;;
16480;SDS011;44634;54.110;12.138;2022-11-14T01:19:30;11.40;;;8.43;;
16480;SDS011;44634;54.110;12.138;2022-11-14T01:21:58;11.67;;;8.87;;
16480;SDS011;44634;54.110;12.138;2022-11-14T01:24:33;10.43;;;8.03;;
16480;SDS011;44634;54.110;12.138;2022-11-14T01:27:01;10.10;;;8.17;;
16480;SDS011;44634;54.110;12.138;2022-11-14T01:29:28;11.63;;;9.33;;
16480;SDS011;44634;54.110;12.138;2022-11-14T01:31:56;9.90;;;7.90;;
16480;SDS011;44634;54.110;12.138;2022-11-14T01:34:24;10.97;;;8.00;;
16480;SDS011;44634;54.110;12.138;2022-11-14T01:36:52;12.77;;;8.77;;
16480;SDS011;44634;54.110;12.138;2022-11-14T01:39:20;9.80;;;8.10;;
16480;SDS011;44634;54.110;12.138;2022-11-14T01:41:49;11.73;;;8.73;;
16480;SDS011;44634;54.110;12.138;2022-11-14T01:44:36;9.83;;;7.90;;
16480;SDS011;44634;54.110;12.138;2022-11-14T01:47:07;12.53;;;8.77;;
16480;SDS011;44634;54.110;12.138;2022-11-14T01:49:38;12.10;;;8.80;;
16480;SDS011;44634;54.110;12.138;2022-11-14T01:52:08;11.60;;;9.07;;
16480;SDS011;44634;54.110;12.138;2022-11-14T01:54:40;10.00;;;8.60;;
16480;SDS011;44634;54.110;12.138;2022-11-14T01:57:13;14.33;;;9.57;;
16480;SDS011;44634;54.110;12.138;2022-11-14T01:59:46;13.10;;;8.50;;
16480;SDS011;44634;54.110;12.138;2022-11-14T02:02:18;12.13;;;9.40;;
16480;SDS011;44634;54.110;12.138;2022-11-14T02:04:49;12.50;;;9.20;;
16480;SDS011;44634;54.110;12.138;2022-11-14T02:07:22;11.67;;;8.80;;
16480;SDS011;44634;54.110;12.138;2022-11-14T02:09:51;13.33;;;9.60;;
16480;SDS011;44634;54.110;12.138;2022-11-14T02:12:21;13.40;;;9.33;;
16480;SDS011;44634;54.110;12.138;2022-11-14T02:14:50;14.13;;;9.57;;
16480;SDS011;44634;54.110;12.138;2022-11-14T02:17:22;12.57;;;9.33;;
16480;SDS011;44634;54.110;12.138;2022-11-14T02:20:04;13.43;;;9.47;;
16480;SDS011;44634;54.110;12.138;2022-11-14T02:22:33;13.57;;;9.60;;
16480;SDS011;44634;54.110;12.138;2022-11-14T02:25:01;11.73;;;8.97;;
16480;SDS011;44634;54.110;12.138;2022-11-14T02:27:29;14.23;;;10.23;;
16480;SDS011;44634;54.110;12.138;2022-11-14T02:30:02;15.00;;;10.33;;
16480;SDS011;44634;54.110;12.138;2022-11-14T02:32:31;14.80;;;9.73;;
16480;SDS011;44634;54.110;12.138;2022-11-14T02:35:20;13.23;;;9.27;;
16480;SDS011;44634;54.110;12.138;2022-11-14T02:37:48;12.77;;;9.23;;
16480;SDS011;44634;54.110;12.138;2022-11-14T02:40:16;14.90;;;9.57;;
16480;SDS011;44634;54.110;12.138;2022-11-14T02:42:43;11.13;;;8.53;;
16480;SDS011;44634;54.110;12.138;2022-11-14T02:45:11;13.83;;;9.57;;
16480;SDS011;44634;54.110;12.138;2022-11-14T02:47:39;12.77;;;8.57;;
16480;SDS011;44634;54.110;12.138;2022-11-14T02:50:08;12.90;;;9.13;;
16480;SDS011;44634;54.110;12.138;2022-11-14T02:52:37;13.43;;;9.20;;
16480;SDS011;44634;54.110;12.138;2022-11-14T02:55:05;12.83;;;8.77;;
16480;SDS011;44634;54.110;12.138;2022-11-14T02:57:33;11.93;;;8.10;;
16480;SDS011;44634;54.110;12.138;2022-11-14T03:00:01;13.40;;;8.70;;
16480;SDS011;44634;54.110;12.138;2022-11-14T03:02:33;12.90;;;8.67;;
16480;SDS011;44634;54.110;12.138;2022-11-14T03:05:01;12.10;;;8.30;;
16480;SDS011;44634;54.110;12.138;2022-11-14T03:07:29;12.60;;;8.63;;
16480;SDS011;44634;54.110;12.138;2022-11-14T03:10:00;12.03;;;8.23;;
16480;SDS011;44634;54.110;12.138;2022-11-14T03:12:28;11.53;;;8.43;;
16480;SDS011;44634;54.110;12.138;2022-11-14T03:14:55;14.37;;;9.20;;
16480;SDS011;44634;54.110;12.138;2022-11-14T03:17:23;13.97;;;9.07;;
16480;SDS011;44634;54.110;12.138;2022-11-14T03:19:51;16.30;;;9.27;;
16480;SDS011;44634;54.110;12.138;2022-11-14T03:22:18;16.53;;;9.97;;
16480;SDS011;44634;54.110;12.138;2022-11-14T03:24:46;13.63;;;8.97;;
16480;SDS011;44634;54.110;12.138;2022-11-14T03:27:15;18.10;;;9.83;;
16480;SDS011;44634;54.110;12.138;2022-11-14T03:29:43;19.60;;;9.80;;
16480;SDS011;44634;54.110;12.138;2022-11-14T03:32:11;15.87;;;8.93;;
16480;SDS011;44634;54.110;12.138;2022-11-14T03:34:38;16.83;;;10.53;;
16480;SDS011;44634;54.110;12.138;2022-11-14T03:37:06;16.50;;;10.60;;
16480;SDS011;44634;54.110;12.138;2022-11-14T03:39:34;21.73;;;11.43;;
16480;SDS011;44634;54.110;12.138;2022-11-14T03:42:03;20.73;;;11.07;;
16480;SDS011;44634;54.110;12.138;2022-11-14T03:44:32;16.90;;;9.33;;
16480;SDS011;44634;54.110;12.138;2022-11-14T03:47:00;23.00;;;12.23;;
16480;SDS011;44634;54.110;12.138;2022-11-14T03:49:27;19.10;;;11.73;;
16480;SDS011;44634;54.110;12.138;2022-11-14T03:51:55;22.00;;;11.50;;
16480;SDS011;44634;54.110;12.138;2022-11-14T03:54:23;20.70;;;11.23;;
16480;SDS011;44634;54.110;12.138;2022-11-14T03:56:50;20.30;;;11.17;;
16480;SDS011;44634;54.110;12.138;2022-11-14T03:59:18;23.93;;;11.73;;
16480;SDS011;44634;54.110;12.138;2022-11-14T04:01:47;23.57;;;11.47;;
16480;SDS011;44634;54.110;12.138;2022-11-14T04:04:15;23.40;;;13.10;;
16480;SDS011;44634;54.110;12.138;2022-11-14T04:06:43;23.80;;;12.20;;
16480;SDS011;44634;54.110;12.138;2022-11-14T04:09:11;23.87;;;12.23;;
16480;SDS011;44634;54.110;12.138;2022-11-14T04:11:39;23.73;;;12.30;;
16480;SDS011;44634;54.110;12.138;2022-11-14T04:14:07;21.87;;;12.53;;
16480;SDS011;44634;54.110;12.138;2022-11-14T04:16:35;22.67;;;13.03;;
16480;SDS011;44634;54.110;12.138;2022-11-14T04:19:04;27.10;;;14.00;;
16480;SDS011;44634;54.110;12.138;2022-11-14T04:21:32;26.87;;;13.93;;
16480;SDS011;44634;54.110;12.138;2022-11-14T04:24:00;28.23;;;14.10;;
16480;SDS011;44634;54.110;12.138;2022-11-14T04:26:35;28.90;;;13.23;;
16480;SDS011;44634;54.110;12.138;2022-11-14T04:29:02;29.50;;;15.03;;
16480;SDS011;44634;54.110;12.138;2022-11-14T04:31:30;29.80;;;14.03;;
16480;SDS011;44634;54.110;12.138;2022-11-14T04:33:58;28.50;;;13.60;;
16480;SDS011;44634;54.110;12.138;2022-11-14T04:36:27;28.03;;;15.10;;
16480;SDS011;44634;54.110;12.138;2022-11-14T04:38:55;38.57;;;19.47;;
16480;SDS011;44634;54.110;12.138;2022-11-14T04:41:23;53.73;;;27.17;;
16480;SDS011;44634;54.110;12.138;2022-11-14T04:43:50;29.93;;;15.20;;
16480;SDS011;44634;54.110;12.138;2022-11-14T04:46:18;31.40;;;14.43;;
16480;SDS011;44634;54.110;12.138;2022-11-14T04:48:46;29.47;;;14.67;;
16480;SDS011;44634;54.110;12.138;2022-11-14T04:51:14;28.57;;;14.97;;
16480;SDS011;44634;54.110;12.138;2022-11-14T04:53:43;28.80;;;15.47;;
16480;SDS011;44634;54.110;12.138;2022-11-14T04:56:10;33.77;;;16.33;;
16480;SDS011;44634;54.110;12.138;2022-11-14T04:58:38;35.90;;;16.20;;
16480;SDS011;44634;54.110;12.138;2022-11-14T05:01:06;36.83;;;17.23;;
16480;SDS011;44634;54.110;12.138;2022-11-14T05:03:34;35.30;;;17.60;;
16480;SDS011;44634;54.110;12.138;2022-11-14T05:06:02;42.17;;;18.47;;
16480;SDS011;44634;54.110;12.138;2022-11-14T05:08:30;38.80;;;17.73;;
16480;SDS011;44634;54.110;12.138;2022-11-14T05:11:00;35.37;;;17.10;;
16480;SDS011;44634;54.110;12.138;2022-11-14T05:13:27;36.57;;;17.33;;
16480;SDS011;44634;54.110;12.138;2022-11-14T05:15:57;41.30;;;18.47;;
16480;SDS011;44634;54.110;12.138;2022-11-14T05:18:25;48.40;;;20.73;;
16480;SDS011;44634;54.110;12.138;2022-11-14T05:20:56;39.33;;;17.90;;
16480;SDS011;44634;54.110;12.138;2022-11-14T05:23:25;47.57;;;21.60;;
16480;SDS011;44634;54.110;12.138;2022-11-14T05:26:02;51.20;;;21.53;;
16480;SDS011;44634;54.110;12.138;2022-11-14T05:28:31;44.90;;;18.93;;
16480;SDS011;44634;54.110;12.138;2022-11-14T05:30:59;39.53;;;19.50;;
16480;SDS011;44634;54.110;12.138;2022-11-14T05:33:28;46.50;;;19.43;;
16480;SDS011;44634;54.110;12.138;2022-11-14T05:35:55;45.50;;;21.07;;
16480;SDS011;44634;54.110;12.138;2022-11-14T05:38:27;50.70;;;21.10;;
16480;SDS011;44634;54.110;12.138;2022-11-14T05:40:55;48.83;;;22.20;;
16480;SDS011;44634;54.110;12.138;2022-11-14T05:43:27;48.53;;;20.83;;
16480;SDS011;44634;54.110;12.138;2022-11-14T05:45:57;50.23;;;20.63;;
16480;SDS011;44634;54.110;12.138;2022-11-14T05:48:26;44.37;;;20.20;;
16480;SDS011;44634;54.110;12.138;2022-11-14T05:50:55;47.93;;;20.93;;
16480;SDS011;44634;54.110;12.138;2022-11-14T05:53:23;49.97;;;22.13;;
16480;SDS011;44634;54.110;12.138;2022-11-14T05:55:51;51.30;;;21.47;;
16480;SDS011;44634;54.110;12.138;2022-11-14T05:58:20;49.13;;;21.37;;
16480;SDS011;44634;54.110;12.138;2022-11-14T06:00:50;51.73;;;22.27;;
16480;SDS011;44634;54.110;12.138;2022-11-14T06:03:19;51.87;;;22.60;;
16480;SDS011;44634;54.110;12.138;2022-11-14T06:05:47;60.53;;;23.37;;
16480;SDS011;44634;54.110;12.138;2022-11-14T06:08:15;49.60;;;22.17;;
16480;SDS011;44634;54.110;12.138;2022-11-14T06:10:42;60.17;;;23.50;;
16480;SDS011;44634;54.110;12.138;2022-11-14T06:13:10;50.47;;;22.23;;
16480;SDS011;44634;54.110;12.138;2022-11-14T06:15:38;60.60;;;22.63;;
16480;SDS011;44634;54.110;12.138;2022-11-14T06:18:13;58.07;;;22.33;;
16480;SDS011;44634;54.110;12.138;2022-11-14T06:20:41;60.30;;;24.60;;
16480;SDS011;44634;54.110;12.138;2022-11-14T06:23:08;49.57;;;22.57;;
16480;SDS011;44634;54.110;12.138;2022-11-14T06:25:36;54.67;;;23.13;;
16480;SDS011;44634;54.110;12.138;2022-11-14T06:28:04;58.83;;;24.30;;
16480;SDS011;44634;54.110;12.138;2022-11-14T06:30:32;58.40;;;23.80;;
16480;SDS011;44634;54.110;12.138;2022-11-14T06:32:59;59.50;;;23.50;;
16480;SDS011;44634;54.110;12.138;2022-11-14T06:35:29;56.83;;;23.23;;
16480;SDS011;44634;54.110;12.138;2022-11-14T06:37:58;55.80;;;21.70;;
16480;SDS011;44634;54.110;12.138;2022-11-14T06:40:33;55.30;;;22.70;;
16480;SDS011;44634;54.110;12.138;2022-11-14T06:43:01;53.27;;;23.17;;
16480;SDS011;44634;54.110;12.138;2022-11-14T06:45:29;56.07;;;25.50;;
16480;SDS011;44634;54.110;12.138;2022-11-14T06:47:57;58.07;;;24.57;;
16480;SDS011;44634;54.110;12.138;2022-11-14T06:50:25;58.10;;;23.47;;
16480;SDS011;44634;54.110;12.138;2022-11-14T06:52:54;64.10;;;25.17;;
16480;SDS011;44634;54.110;12.138;2022-11-14T06:55:23;60.00;;;23.23;;
16480;SDS011;44634;54.110;12.138;2022-11-14T06:57:51;65.27;;;23.53;;
16480;SDS011;44634;54.110;12.138;2022-11-14T07:00:20;59.20;;;25.07;;
16480;SDS011;44634;54.110;12.138;2022-11-14T07:02:48;54.30;;;23.67;;
16480;SDS011;44634;54.110;12.138;2022-11-14T07:05:16;58.40;;;23.27;;
16480;SDS011;44634;54.110;12.138;2022-11-14T07:07:44;62.53;;;25.37;;
16480;SDS011;44634;54.110;12.138;2022-11-14T07:10:13;58.77;;;25.03;;
16480;SDS011;44634;54.110;12.138;2022-11-14T07:12:40;51.27;;;23.23;;
16480;SDS011;44634;54.110;12.138;2022-11-14T07:15:09;57.87;;;22.93;;
16480;SDS011;44634;54.110;12.138;2022-11-14T07:17:36;52.37;;;23.13;;
16480;SDS011;44634;54.110;12.138;2022-11-14T07:20:05;52.23;;;20.63;;
16480;SDS011;44634;54.110;12.138;2022-11-14T07:22:33;52.00;;;21.20;;
16480;SDS011;44634;54.110;12.138;2022-11-14T07:25:01;55.33;;;24.10;;
16480;SDS011;44634;54.110;12.138;2022-11-14T07:27:30;60.03;;;24.17;;
16480;SDS011;44634;54.110;12.138;2022-11-14T07:29:58;60.87;;;24.73;;
16480;SDS011;44634;54.110;12.138;2022-11-14T07:32:25;60.37;;;24.53;;
16480;SDS011;44634;54.110;12.138;2022-11-14T07:34:53;57.90;;;24.20;;
16480;SDS011;44634;54.110;12.138;2022-11-14T07:37:27;58.23;;;24.67;;
16480;SDS011;44634;54.110;12.138;2022-11-14T07:39:55;60.63;;;23.23;;
16480;SDS011;44634;54.110;12.138;2022-11-14T07:42:22;62.60;;;24.40;;
16480;SDS011;44634;54.110;12.138;2022-11-14T07:44:51;56.27;;;24.03;;
16480;SDS011;44634;54.110;12.138;2022-11-14T07:47:19;54.50;;;23.67;;
16480;SDS011;44634;54.110;12.138;2022-11-14T07:49:47;55.60;;;23.07;;
16480;SDS011;44634;54.110;12.138;2022-11-14T07:52:14;50.87;;;21.97;;
16480;SDS011;44634;54.110;12.138;2022-11-14T07:54:42;57.90;;;22.70;;
16480;SDS011;44634;54.110;12.138;2022-11-14T07:57:10;50.70;;;21.20;;
16480;SDS011;44634;54.110;12.138;2022-11-14T07:59:38;57.00;;;22.80;;
16480;SDS011;44634;54.110;12.138;2022-11-14T08:02:07;56.97;;;23.37;;
16480;SDS011;44634;54.110;12.138;2022-11-14T08:04:38;58.37;;;23.00;;
16480;SDS011;44634;54.110;12.138;2022-11-14T08:07:06;52.20;;;24.53;;
16480;SDS011;44634;54.110;12.138;2022-11-14T08:09:34;61.60;;;23.40;;
16480;SDS011;44634;54.110;12.138;2022-11-14T08:12:01;52.87;;;22.87;;
16480;SDS011;44634;54.110;12.138;2022-11-14T08:14:29;56.10;;;23.20;;
16480;SDS011;44634;54.110;12.138;2022-11-14T08:16:57;53.20;;;21.90;;
16480;SDS011;44634;54.110;12.138;2022-11-14T08:19:26;55.37;;;22.27;;
16480;SDS011;44634;54.110;12.138;2022-11-14T08:21:54;52.80;;;23.03;;
16480;SDS011;44634;54.110;12.138;2022-11-14T08:24:21;55.40;;;23.57;;
16480;SDS011;44634;54.110;12.138;2022-11-14T08:26:49;57.20;;;23.77;;
16480;SDS011;44634;54.110;12.138;2022-11-14T08:29:17;48.37;;;21.73;;
16480;SDS011;44634;54.110;12.138;2022-11-14T08:31:45;48.83;;;22.20;;
16480;SDS011;44634;54.110;12.138;2022-11-14T08:34:13;49.80;;;22.00;;
16480;SDS011;44634;54.110;12.138;2022-11-14T08:36:42;56.80;;;22.23;;
16480;SDS011;44634;54.110;12.138;2022-11-14T08:39:10;50.97;;;22.67;;
16480;SDS011;44634;54.110;12.138;2022-11-14T08:41:37;47.53;;;22.57;;
16480;SDS011;44634;54.110;12.138;2022-11-14T08:44:05;53.37;;;21.97;;
16480;SDS011;44634;54.110;12.138;2022-11-14T08:46:33;57.47;;;22.60;;
16480;SDS011;44634;54.110;12.138;2022-11-14T08:49:01;48.63;;;21.90;;
16480;SDS011;44634;54.110;12.138;2022-11-14T08:51:28;50.33;;;21.83;;
16480;SDS011;44634;54.110;12.138;2022-11-14T08:53:57;50.73;;;21.63;;
16480;SDS011;44634;54.110;12.138;2022-11-14T08:56:25;51.30;;;20.73;;
16480;SDS011;44634;54.110;12.138;2022-11-14T08:58:53;55.90;;;22.93;;
16480;SDS011;44634;54.110;12.138;2022-11-14T09:01:21;48.13;;;21.17;;
16480;SDS011;44634;54.110;12.138;2022-11-14T09:03:48;53.13;;;21.67;;
16480;SDS011;44634;54.110;12.138;2022-11-14T09:06:23;56.83;;;22.20;;
16480;SDS011;44634;54.110;12.138;2022-11-14T09:08:51;47.13;;;20.97;;
16480;SDS011;44634;54.110;12.138;2022-11-14T09:11:20;51.37;;;22.60;;
16480;SDS011;44634;54.110;12.138;2022-11-14T09:13:48;48.27;;;21.70;;
16480;SDS011;44634;54.110;12.138;2022-11-14T09:16:16;54.13;;;21.90;;
16480;SDS011;44634;54.110;12.138;2022-11-14T09:18:44;48.93;;;22.87;;
16480;SDS011;44634;54.110;12.138;2022-11-14T09:21:11;49.83;;;22.90;;
16480;SDS011;44634;54.110;12.138;2022-11-14T09:23:39;57.40;;;23.63;;
16480;SDS011;44634;54.110;12.138;2022-11-14T09:26:07;55.47;;;23.37;;
16480;SDS011;44634;54.110;12.138;2022-11-14T09:28:37;47.27;;;22.03;;
16480;SDS011;44634;54.110;12.138;2022-11-14T09:31:05;52.60;;;22.83;;
16480;SDS011;44634;54.110;12.138;2022-11-14T09:33:34;55.10;;;21.27;;
16480;SDS011;44634;54.110;12.138;2022-11-14T09:36:03;50.20;;;20.87;;
16480;SDS011;44634;54.110;12.138;2022-11-14T09:38:33;47.33;;;22.37;;
16480;SDS011;44634;54.110;12.138;2022-11-14T09:41:08;52.20;;;21.27;;
16480;SDS011;44634;54.110;12.138;2022-11-14T09:44:03;51.53;;;22.80;;
16480;SDS011;44634;54.110;12.138;2022-11-14T09:46:46;56.13;;;24.57;;
16480;SDS011;44634;54.110;12.138;2022-11-14T09:49:21;49.30;;;20.47;;
16480;SDS011;44634;54.110;12.138;2022-11-14T09:51:54;45.20;;;20.53;;
16480;SDS011;44634;54.110;12.138;2022-11-14T09:54:27;42.27;;;20.27;;
16480;SDS011;44634;54.110;12.138;2022-11-14T09:57:02;46.33;;;19.90;;
16480;SDS011;44634;54.110;12.138;2022-11-14T09:59:31;52.63;;;20.90;;
16480;SDS011;44634;54.110;12.138;2022-11-14T10:02:00;43.37;;;21.17;;
16480;SDS011;44634;54.110;12.138;2022-11-14T10:04:43;49.20;;;22.13;;
16480;SDS011;44634;54.110;12.138;2022-11-14T10:07:22;43.13;;;21.10;;
16480;SDS011;44634;54.110;12.138;2022-11-14T10:10:02;43.30;;;20.33;;
16480;SDS011;44634;54.110;12.138;2022-11-14T10:12:42;40.33;;;18.47;;
16480;SDS011;44634;54.110;12.138;2022-11-14T10:15:25;39.43;;;18.57;;
16480;SDS011;44634;54.110;12.138;2022-11-14T10:18:04;43.27;;;19.47;;
16480;SDS011;44634;54.110;12.138;2022-11-14T10:20:43;37.63;;;19.20;;
16480;SDS011;44634;54.110;12.138;2022-11-14T10:23:22;43.07;;;19.93;;
16480;SDS011;44634;54.110;12.138;2022-11-14T10:26:03;45.90;;;20.07;;
16480;SDS011;44634;54.110;12.138;2022-11-14T10:28:39;46.23;;;20.27;;
16480;SDS011;44634;54.110;12.138;2022-11-14T10:31:18;42.90;;;19.43;;
16480;SDS011;44634;54.110;12.138;2022-11-14T10:33:51;43.17;;;20.37;;
16480;SDS011;44634;54.110;12.138;2022-11-14T10:36:27;41.77;;;19.60;;
16480;SDS011;44634;54.110;12.138;2022-11-14T10:39:08;41.50;;;19.60;;
16480;SDS011;44634;54.110;12.138;2022-11-14T10:41:41;39.43;;;18.63;;
16480;SDS011;44634;54.110;12.138;2022-11-14T10:44:31;39.83;;;18.67;;
16480;SDS011;44634;54.110;12.138;2022-11-14T10:47:05;41.07;;;19.20;;
16480;SDS011;44634;54.110;12.138;2022-11-14T10:49:37;38.80;;;19.53;;
16480;SDS011;44634;54.110;12.138;2022-11-14T10:52:08;38.63;;;18.03;;
16480;SDS011;44634;54.110;12.138;2022-11-14T10:54:39;40.20;;;18.40;;
16480;SDS011;44634;54.110;12.138;2022-11-14T10:57:15;37.57;;;17.63;;
16480;SDS011;44634;54.110;12.138;2022-11-14T10:59:45;39.70;;;18.27;;
16480;SDS011;44634;54.110;12.138;2022-11-14T11:02:15;34.10;;;17.30;;
16480;SDS011;44634;54.110;12.138;2022-11-14T11:04:43;36.53;;;17.77;;
16480;SDS011;44634;54.110;12.138;2022-11-14T11:07:17;38.10;;;18.47;;
16480;SDS011;44634;54.110;12.138;2022-11-14T11:10:04;34.17;;;17.47;;
16480;SDS011;44634;54.110;12.138;2022-11-14T11:12:51;32.23;;;17.30;;
16480;SDS011;44634;54.110;12.138;2022-11-14T11:15:20;35.70;;;18.03;;
16480;SDS011;44634;54.110;12.138;2022-11-14T11:17:54;37.60;;;18.83;;
16480;SDS011;44634;54.110;12.138;2022-11-14T11:20:25;39.70;;;19.03;;
16480;SDS011;44634;54.110;12.138;2022-11-14T11:23:00;39.67;;;19.53;;
16480;SDS011;44634;54.110;12.138;2022-11-14T11:25:30;39.63;;;18.37;;
16480;SDS011;44634;54.110;12.138;2022-11-14T11:28:03;41.80;;;19.10;;
16480;SDS011;44634;54.110;12.138;2022-11-14T11:30:33;41.33;;;19.70;;
16480;SDS011;44634;54.110;12.138;2022-11-14T11:33:15;37.10;;;19.30;;
16480;SDS011;44634;54.110;12.138;2022-11-14T11:35:49;33.20;;;17.93;;
16480;SDS011;44634;54.110;12.138;2022-11-14T11:38:18;36.47;;;16.90;;
16480;SDS011;44634;54.110;12.138;2022-11-14T11:40:49;38.57;;;19.33;;
16480;SDS011;44634;54.110;12.138;2022-11-14T11:43:23;35.80;;;19.33;;
16480;SDS011;44634;54.110;12.138;2022-11-14T11:46:07;32.37;;;17.43;;
16480;SDS011;44634;54.110;12.138;2022-11-14T11:48:43;35.37;;;17.43;;
16480;SDS011;44634;54.110;12.138;2022-11-14T11:51:15;29.00;;;17.27;;
16480;SDS011;44634;54.110;12.138;2022-11-14T11:53:47;34.40;;;17.70;;
16480;SDS011;44634;54.110;12.138;2022-11-14T11:56:24;33.93;;;17.43;;
16480;SDS011;44634;54.110;12.138;2022-11-14T11:58:54;33.70;;;17.87;;
16480;SDS011;44634;54.110;12.138;2022-11-14T12:01:28;31.87;;;16.90;;
16480;SDS011;44634;54.110;12.138;2022-11-14T12:03:57;33.30;;;18.13;;
16480;SDS011;44634;54.110;12.138;2022-11-14T12:06:27;31.97;;;16.93;;
16480;SDS011;44634;54.110;12.138;2022-11-14T12:09:03;31.97;;;17.77;;
16480;SDS011;44634;54.110;12.138;2022-11-14T12:11:36;32.67;;;17.60;;
16480;SDS011;44634;54.110;12.138;2022-11-14T12:14:17;33.13;;;17.63;;
16480;SDS011;44634;54.110;12.138;2022-11-14T12:17:07;34.13;;;17.27;;
16480;SDS011;44634;54.110;12.138;2022-11-14T12:23:12;32.57;;;17.23;;
16480;SDS011;44634;54.110;12.138;2022-11-14T12:25:56;32.73;;;17.77;;
16480;SDS011;44634;54.110;12.138;2022-11-14T12:28:39;38.20;;;20.20;;
16480;SDS011;44634;54.110;12.138;2022-11-14T12:31:18;32.67;;;18.17;;
16480;SDS011;44634;54.110;12.138;2022-11-14T12:33:47;32.83;;;18.37;;
16480;SDS011;44634;54.110;12.138;2022-11-14T12:36:22;36.03;;;19.17;;
16480;SDS011;44634;54.110;12.138;2022-11-14T12:38:56;32.23;;;17.70;;
16480;SDS011;44634;54.110;12.138;2022-11-14T12:41:26;34.53;;;17.87;;
16480;SDS011;44634;54.110;12.138;2022-11-14T12:52:55;34.53;;;17.27;;
16480;SDS011;44634;54.110;12.138;2022-11-14T12:58:41;35.43;;;19.00;;
16480;SDS011;44634;54.110;12.138;2022-11-14T13:01:36;35.53;;;18.67;;
16480;SDS011;44634;54.110;12.138;2022-11-14T13:04:19;30.27;;;16.07;;
16480;SDS011;44634;54.110;12.138;2022-11-14T13:06:59;32.23;;;17.47;;
16480;SDS011;44634;54.110;12.138;2022-11-14T13:09:40;33.47;;;17.87;;
16480;SDS011;44634;54.110;12.138;2022-11-14T13:12:27;33.80;;;17.87;;
16480;SDS011;44634;54.110;12.138;2022-11-14T13:15:24;33.53;;;18.20;;
16480;SDS011;44634;54.110;12.138;2022-11-14T13:18:19;34.53;;;18.77;;
16480;SDS011;44634;54.110;12.138;2022-11-14T13:21:16;34.43;;;18.47;;
16480;SDS011;44634;54.110;12.138;2022-11-14T13:24:11;33.57;;;19.07;;
16480;SDS011;44634;54.110;12.138;2022-11-14T13:26:48;31.93;;;17.60;;
16480;SDS011;44634;54.110;12.138;2022-11-14T13:41:24;34.20;;;19.13;;
16480;SDS011;44634;54.110;12.138;2022-11-14T13:47:24;35.23;;;19.03;;
16480;SDS011;44634;54.110;12.138;2022-11-14T13:50:03;38.70;;;18.60;;
16480;SDS011;44634;54.110;12.138;2022-11-14T13:52:33;38.87;;;19.97;;
16480;SDS011;44634;54.110;12.138;2022-11-14T13:55:06;40.43;;;20.40;;
16480;SDS011;44634;54.110;12.138;2022-11-14T13:57:37;35.83;;;19.17;;
16480;SDS011;44634;54.110;12.138;2022-11-14T14:00:14;35.37;;;19.23;;
16480;SDS011;44634;54.110;12.138;2022-11-14T14:06:00;34.67;;;18.97;;
16480;SDS011;44634;54.110;12.138;2022-11-14T14:08:56;35.60;;;18.73;;
16480;SDS011;44634;54.110;12.138;2022-11-14T14:11:41;41.50;;;19.37;;
16480;SDS011;44634;54.110;12.138;2022-11-14T14:14:22;35.60;;;19.43;;
16480;SDS011;44634;54.110;12.138;2022-11-14T14:17:09;39.90;;;19.00;;
16480;SDS011;44634;54.110;12.138;2022-11-14T14:19:46;37.27;;;17.83;;
16480;SDS011;44634;54.110;12.138;2022-11-14T14:22:25;37.17;;;18.20;;
16480;SDS011;44634;54.110;12.138;2022-11-14T14:25:02;37.40;;;19.53;;
16480;SDS011;44634;54.110;12.138;2022-11-14T14:27:36;37.53;;;19.30;;
16480;SDS011;44634;54.110;12.138;2022-11-14T14:30:16;42.27;;;18.97;;
16480;SDS011;44634;54.110;12.138;2022-11-14T14:35:38;39.93;;;20.20;;
16480;SDS011;44634;54.110;12.138;2022-11-14T14:38:21;39.03;;;18.97;;
16480;SDS011;44634;54.110;12.138;2022-11-14T14:40:50;42.97;;;19.23;;
16480;SDS011;44634;54.110;12.138;2022-11-14T14:43:22;40.67;;;20.57;;
16480;SDS011;44634;54.110;12.138;2022-11-14T14:45:54;47.27;;;22.13;;
16480;SDS011;44634;54.110;12.138;2022-11-14T14:48:23;41.80;;;21.70;;
16480;SDS011;44634;54.110;12.138;2022-11-14T14:50:55;40.17;;;21.00;;
16480;SDS011;44634;54.110;12.138;2022-11-14T14:53:25;43.23;;;19.97;;
16480;SDS011;44634;54.110;12.138;2022-11-14T14:55:54;40.17;;;19.50;;
16480;SDS011;44634;54.110;12.138;2022-11-14T14:58:24;45.57;;;21.30;;
16480;SDS011;44634;54.110;12.138;2022-11-14T15:00:55;43.20;;;21.23;;
16480;SDS011;44634;54.110;12.138;2022-11-14T15:03:27;44.93;;;21.17;;
16480;SDS011;44634;54.110;12.138;2022-11-14T15:06:04;41.80;;;20.60;;
16480;SDS011;44634;54.110;12.138;2022-11-14T15:08:38;41.83;;;20.77;;
16480;SDS011;44634;54.110;12.138;2022-11-14T15:11:05;42.13;;;21.13;;
16480;SDS011;44634;54.110;12.138;2022-11-14T15:13:34;47.60;;;21.17;;